createdAt,value
2024-03-02T00:01:18.460Z,2.70
2024-03-02T00:03:46.582Z,2.55
2024-03-02T00:06:17.141Z,2.42
2024-03-02T00:08:45.346Z,2.47
2024-03-02T00:11:15.646Z,2.58
2024-03-02T00:13:44.349Z,2.40
2024-03-02T00:16:12.956Z,2.60
2024-03-02T00:18:41.239Z,2.50
2024-03-02T00:21:11.951Z,2.45
2024-03-02T00:23:43.961Z,2.33
2024-03-02T00:26:16.988Z,2.45
2024-03-02T00:28:46.288Z,2.63
2024-03-02T00:31:15.802Z,2.35
2024-03-02T00:33:46.004Z,2.20
2024-03-02T00:36:16.398Z,2.55
2024-03-02T00:38:49.280Z,2.47
2024-03-02T00:41:23.601Z,2.53
2024-03-02T00:44:02.194Z,2.70
2024-03-02T00:46:32.430Z,2.53
2024-03-02T00:49:02.095Z,2.70
2024-03-02T00:51:32.410Z,2.30
2024-03-02T00:54:05.176Z,2.47
2024-03-02T00:56:34.766Z,2.53
2024-03-02T00:59:02.946Z,2.80
2024-03-02T01:01:30.941Z,3.38
2024-03-02T01:03:59.216Z,3.40
2024-03-02T01:06:27.302Z,2.90
2024-03-02T01:08:55.566Z,2.53
2024-03-02T01:11:25.407Z,2.80
2024-03-02T01:13:54.199Z,2.53
2024-03-02T01:16:22.891Z,2.50
2024-03-02T01:18:51.199Z,2.30
2024-03-02T01:21:19.516Z,2.58
2024-03-02T01:23:47.547Z,2.33
2024-03-02T01:26:15.541Z,2.42
2024-03-02T01:28:44.894Z,2.13
2024-03-02T01:33:41.040Z,2.08
2024-03-02T01:36:09.649Z,2.13
2024-03-02T01:38:37.807Z,2.40
2024-03-02T01:41:05.944Z,2.40
2024-03-02T01:43:34.162Z,2.38
2024-03-02T01:46:04.090Z,2.35
2024-03-02T01:48:32.545Z,2.00
2024-03-02T01:51:00.831Z,2.40
2024-03-02T01:53:29.540Z,2.28
2024-03-02T01:55:57.699Z,2.00
2024-03-02T01:58:25.700Z,2.28
2024-03-02T02:00:54.006Z,2.17
2024-03-02T02:03:23.478Z,1.95
2024-03-02T02:08:19.641Z,2.00
2024-03-02T02:10:47.803Z,2.10
2024-03-02T02:13:15.873Z,2.03
2024-03-02T02:15:43.850Z,2.38
2024-03-02T02:18:12.051Z,1.98
2024-03-02T02:20:41.664Z,2.25
2024-03-02T02:23:11.565Z,2.17
2024-03-02T02:25:39.864Z,1.98
2024-03-02T02:28:08.112Z,2.05
2024-03-02T02:30:36.358Z,2.20
2024-03-02T02:33:05.074Z,2.47
2024-03-02T02:35:33.324Z,2.20
2024-03-02T02:38:01.860Z,2.47
2024-03-02T02:40:31.961Z,2.10
2024-03-02T02:43:00.444Z,2.15
2024-03-02T02:45:27.560Z,2.20
2024-03-02T02:47:55.693Z,2.22
2024-03-02T02:50:23.713Z,2.00
2024-03-02T02:52:51.694Z,1.88
2024-03-02T02:55:19.880Z,2.25
2024-03-02T02:57:49.213Z,2.30
2024-03-02T03:02:49.930Z,1.77
2024-03-02T03:05:19.129Z,2.20
2024-03-02T03:07:49.828Z,2.20
2024-03-02T03:10:18.808Z,2.10
2024-03-02T03:12:46.846Z,1.83
2024-03-02T03:15:17.354Z,2.20
2024-03-02T03:17:47.201Z,2.08
2024-03-02T03:20:16.787Z,1.73
2024-03-02T03:22:45.100Z,2.40
2024-03-02T03:25:13.685Z,2.20
2024-03-02T03:27:42.683Z,2.08
2024-03-02T03:30:11.933Z,2.17
2024-03-02T03:32:41.562Z,2.28
2024-03-02T03:35:10.374Z,2.20
2024-03-02T03:37:38.411Z,2.35
2024-03-02T03:40:11.751Z,2.10
2024-03-02T03:42:40.896Z,2.17
2024-03-02T03:45:10.043Z,2.20
2024-03-02T03:47:38.389Z,1.80
2024-03-02T03:50:09.261Z,1.90
2024-03-02T03:52:37.671Z,1.90
2024-03-02T03:55:07.388Z,2.42
2024-03-02T03:57:35.816Z,1.90
2024-03-02T04:00:04.938Z,2.08
2024-03-02T04:02:32.941Z,2.08
2024-03-02T04:05:01.230Z,2.08
2024-03-02T04:07:30.641Z,1.85
2024-03-02T04:12:26.817Z,1.83
2024-03-02T04:14:54.844Z,1.80
2024-03-02T04:17:22.807Z,2.10
2024-03-02T04:19:51.000Z,1.90
2024-03-02T04:22:25.027Z,2.20
2024-03-02T04:24:55.490Z,2.00
2024-03-02T04:27:23.880Z,2.05
2024-03-02T04:29:51.846Z,2.08
2024-03-02T04:32:20.995Z,1.90
2024-03-02T04:34:49.179Z,2.08
2024-03-02T04:37:17.185Z,2.05
2024-03-02T04:39:45.328Z,2.08
2024-03-02T04:42:14.795Z,2.15
2024-03-02T04:47:10.809Z,2.30
2024-03-02T04:49:39.692Z,2.38
2024-03-02T04:52:07.828Z,2.47
2024-03-02T04:54:56.772Z,2.30
2024-03-02T04:57:26.401Z,2.28
2024-03-02T04:59:54.548Z,2.08
2024-03-02T05:02:22.552Z,2.63
2024-03-02T05:04:50.518Z,2.42
2024-03-02T05:07:18.665Z,2.25
2024-03-02T05:09:46.756Z,2.60
2024-03-02T05:12:28.742Z,2.33
2024-03-02T05:14:58.298Z,2.67
2024-03-02T05:17:26.416Z,2.28
2024-03-02T05:19:54.448Z,2.28
2024-03-02T05:22:22.581Z,2.40
2024-03-02T05:24:50.677Z,2.45
2024-03-02T05:27:18.999Z,2.40
2024-03-02T05:29:47.008Z,2.22
2024-03-02T05:32:16.658Z,2.75
2024-03-02T05:34:44.922Z,2.70
2024-03-02T05:37:13.140Z,2.72
2024-03-02T05:39:41.272Z,2.60
2024-03-02T05:42:09.815Z,2.50
2024-03-02T05:44:37.948Z,2.87
2024-03-02T05:47:09.766Z,2.88
2024-03-02T05:49:39.438Z,3.20
2024-03-02T05:52:08.322Z,2.88
2024-03-02T05:54:36.702Z,3.25
2024-03-02T05:57:18.346Z,3.78
2024-03-02T05:59:46.507Z,3.20
2024-03-02T06:02:14.484Z,3.20
2024-03-02T06:04:44.240Z,3.25
2024-03-02T06:07:12.568Z,2.60
2024-03-02T06:09:40.771Z,2.90
2024-03-02T06:12:09.403Z,2.80
2024-03-02T06:14:37.545Z,2.30
2024-03-02T06:17:06.522Z,2.42
2024-03-02T06:19:34.524Z,2.67
2024-03-02T06:22:04.999Z,2.38
2024-03-02T06:24:33.055Z,2.63
2024-03-02T06:27:00.090Z,2.47
2024-03-02T06:29:28.266Z,3.20
2024-03-02T06:31:56.300Z,2.58
2024-03-02T06:34:24.450Z,2.92
2024-03-02T06:36:52.652Z,3.22
2024-03-02T06:39:22.149Z,3.05
2024-03-02T06:41:50.238Z,3.13
2024-03-02T06:44:18.317Z,3.25
2024-03-02T06:46:46.475Z,3.38
2024-03-02T06:49:14.822Z,3.10
2024-03-02T06:51:43.542Z,3.40
2024-03-02T06:54:11.552Z,3.55
2024-03-02T06:56:41.236Z,3.20
2024-03-02T06:59:09.406Z,3.20
2024-03-02T07:01:37.424Z,3.17
2024-03-02T07:04:08.131Z,3.13
2024-03-02T07:06:36.077Z,3.40
2024-03-02T07:09:04.284Z,3.53
2024-03-02T07:11:32.327Z,3.63
2024-03-02T07:14:02.877Z,3.10
2024-03-02T07:16:30.992Z,3.15
2024-03-02T07:19:00.017Z,3.08
2024-03-02T07:21:28.029Z,2.85
2024-03-02T07:23:56.632Z,2.72
2024-03-02T07:28:55.936Z,3.05
2024-03-02T07:31:25.544Z,2.90
2024-03-02T07:33:53.769Z,2.42
2024-03-02T07:36:22.157Z,2.30
2024-03-02T07:38:51.634Z,2.67
2024-03-02T07:41:19.827Z,2.50
2024-03-02T07:43:47.975Z,2.47
2024-03-02T07:46:16.010Z,2.15
2024-03-02T07:48:46.025Z,2.22
2024-03-02T07:51:15.097Z,2.35
2024-03-02T07:53:43.607Z,2.22
2024-03-02T07:56:12.773Z,2.17
2024-03-02T07:58:42.094Z,2.00
2024-03-02T08:03:39.416Z,1.73
2024-03-02T08:06:09.263Z,1.90
2024-03-02T08:08:37.263Z,1.70
2024-03-02T08:11:05.808Z,1.48
2024-03-02T08:13:33.869Z,1.40
2024-03-02T08:16:04.387Z,1.52
2024-03-02T08:18:32.615Z,1.70
2024-03-02T08:21:01.061Z,1.58
2024-03-02T08:23:30.685Z,1.48
2024-03-02T08:25:59.024Z,1.63
2024-03-02T08:28:26.979Z,1.60
2024-03-02T08:30:55.049Z,1.52
2024-03-02T08:33:23.086Z,1.63
2024-03-02T08:35:51.124Z,1.65
2024-03-02T08:38:19.431Z,1.60
2024-03-02T08:40:48.921Z,1.55
2024-03-02T08:43:16.933Z,1.50
2024-03-02T08:45:45.298Z,1.67
2024-03-02T08:48:13.601Z,1.30
2024-03-02T08:50:41.594Z,1.58
2024-03-02T08:53:10.096Z,1.65
2024-03-02T08:55:38.049Z,1.53
2024-03-02T08:58:07.934Z,1.60
2024-03-02T09:00:36.169Z,1.63
2024-03-02T09:03:04.261Z,1.60
2024-03-02T09:05:32.420Z,1.50
2024-03-02T09:08:00.683Z,1.50
2024-03-02T09:10:29.076Z,1.77
2024-03-02T09:12:57.496Z,1.70
2024-03-02T09:15:27.241Z,1.77
2024-03-02T09:17:55.620Z,1.55
2024-03-02T09:20:24.362Z,1.88
2024-03-02T09:22:52.444Z,1.40
2024-03-02T09:25:20.572Z,1.67
2024-03-02T09:27:48.655Z,1.50
2024-03-02T09:30:17.163Z,1.85
2024-03-02T09:32:48.433Z,1.63
2024-03-02T09:35:19.293Z,1.73
2024-03-02T09:37:47.468Z,1.60
2024-03-02T09:40:17.531Z,1.48
2024-03-02T09:42:52.311Z,1.60
2024-03-02T09:45:24.633Z,1.60
2024-03-02T09:47:54.313Z,1.65
2024-03-02T09:50:22.447Z,1.63
2024-03-02T09:52:51.609Z,1.88
2024-03-02T09:55:20.679Z,1.48
2024-03-02T09:57:49.646Z,1.42
2024-03-02T10:00:18.390Z,1.30
2024-03-02T10:02:50.064Z,1.10
2024-03-02T10:05:29.569Z,1.10
2024-03-02T10:08:04.384Z,1.13
2024-03-02T10:10:41.030Z,1.23
2024-03-02T10:13:10.920Z,1.08
2024-03-02T10:15:42.104Z,0.80
2024-03-02T10:18:12.668Z,0.93
2024-03-02T10:20:42.975Z,0.90
2024-03-02T10:23:15.489Z,0.80
2024-03-02T10:25:51.725Z,0.90
2024-03-02T10:28:26.150Z,1.10
2024-03-02T10:30:54.857Z,1.00
2024-03-02T10:33:23.261Z,0.90
2024-03-02T10:35:53.317Z,1.00
2024-03-02T10:38:22.033Z,1.00
2024-03-02T10:40:50.581Z,1.00
2024-03-02T10:43:21.204Z,0.93
2024-03-02T10:45:51.870Z,1.30
2024-03-02T10:48:20.025Z,1.10
2024-03-02T10:50:48.242Z,1.40
2024-03-02T10:53:17.643Z,1.50
2024-03-02T10:58:16.266Z,1.23
2024-03-02T11:00:46.975Z,1.10
2024-03-02T11:03:15.975Z,1.10
2024-03-02T11:05:46.787Z,1.92
2024-03-02T11:08:22.161Z,1.10
2024-03-02T11:10:53.816Z,1.33
2024-03-02T11:13:27.012Z,1.45
2024-03-02T11:16:01.413Z,1.73
2024-03-02T11:18:30.160Z,1.50
2024-03-02T11:20:59.082Z,1.30
2024-03-02T11:23:36.556Z,1.20
2024-03-02T11:26:25.775Z,1.30
2024-03-02T11:31:21.525Z,1.30
2024-03-02T11:33:49.835Z,1.40
2024-03-02T11:36:18.833Z,1.20
2024-03-02T11:38:49.187Z,1.20
2024-03-02T11:41:17.244Z,1.20
2024-03-02T11:43:46.646Z,1.13
2024-03-02T11:48:42.794Z,0.90
2024-03-02T11:51:12.470Z,1.02
2024-03-02T11:53:42.063Z,1.02
2024-03-02T11:56:12.888Z,1.00
2024-03-02T11:58:42.394Z,1.35
2024-03-02T12:03:38.385Z,1.10
2024-03-02T12:06:08.469Z,1.40
2024-03-02T12:08:38.227Z,1.08
2024-03-02T12:11:07.872Z,1.23
2024-03-02T12:13:37.480Z,1.20
2024-03-02T12:16:06.459Z,1.10
2024-03-02T12:18:34.640Z,1.20
2024-03-02T12:21:04.323Z,1.05
2024-03-02T12:23:32.310Z,1.45
2024-03-02T12:26:00.790Z,1.30
2024-03-02T12:28:29.518Z,1.10
2024-03-02T12:30:59.827Z,1.30
2024-03-02T12:33:30.460Z,0.98
2024-03-02T12:35:59.663Z,1.00
2024-03-02T12:38:28.580Z,1.10
2024-03-02T12:40:56.556Z,1.05
2024-03-02T12:43:25.278Z,0.82
2024-03-02T12:45:53.433Z,1.10
2024-03-02T12:48:22.952Z,1.00
2024-03-02T12:50:51.227Z,1.00
2024-03-02T12:53:19.193Z,0.90
2024-03-02T12:55:47.521Z,0.80
2024-03-02T12:58:23.146Z,0.75
2024-03-02T13:00:51.672Z,0.90
2024-03-02T13:03:23.870Z,1.15
2024-03-02T13:05:52.338Z,0.70
2024-03-02T13:08:20.446Z,0.80
2024-03-02T13:10:48.898Z,0.90
2024-03-02T13:13:17.314Z,1.60
2024-03-02T13:15:46.461Z,2.43
2024-03-02T13:20:46.559Z,0.80
2024-03-02T13:23:15.191Z,0.60
2024-03-02T13:25:44.274Z,0.82
2024-03-02T13:28:12.880Z,0.70
2024-03-02T13:30:41.425Z,0.55
2024-03-02T13:33:09.874Z,0.73
2024-03-02T13:35:38.019Z,0.80
2024-03-02T13:38:08.026Z,1.13
2024-03-02T13:40:37.202Z,2.00
2024-03-02T13:43:06.362Z,2.15
2024-03-02T13:48:04.957Z,1.30
2024-03-02T13:50:33.133Z,2.95
2024-03-02T13:53:01.257Z,1.10
2024-03-02T13:55:30.949Z,1.00
2024-03-02T13:57:59.627Z,0.82
2024-03-02T14:00:27.936Z,1.60
2024-03-02T14:02:56.372Z,1.30
2024-03-02T14:05:24.760Z,1.17
2024-03-02T14:07:52.702Z,1.90
2024-03-02T14:10:23.516Z,2.20
2024-03-02T14:12:53.396Z,5.60
2024-03-02T14:15:22.064Z,1.90
2024-03-02T14:17:51.394Z,1.20
2024-03-02T14:22:52.098Z,0.70
2024-03-02T14:25:20.503Z,0.52
2024-03-02T14:28:07.918Z,0.50
2024-03-02T14:30:38.575Z,0.63
2024-03-02T14:33:07.280Z,0.65
2024-03-02T14:35:35.428Z,0.50
2024-03-02T14:38:03.819Z,0.50
2024-03-02T14:40:31.964Z,0.60
2024-03-02T14:43:00.076Z,0.70
2024-03-02T14:45:28.368Z,0.70
2024-03-02T14:48:00.743Z,0.68
2024-03-02T14:50:28.937Z,0.60
2024-03-02T14:52:59.060Z,0.90
2024-03-02T14:55:27.197Z,0.80
2024-03-02T14:57:55.629Z,0.77
2024-03-02T15:00:23.755Z,0.77
2024-03-02T15:02:51.853Z,0.70
2024-03-02T15:05:21.358Z,0.70
2024-03-02T15:07:49.459Z,0.70
2024-03-02T15:10:18.111Z,0.70
2024-03-02T15:12:46.496Z,0.77
2024-03-02T15:15:14.624Z,0.80
2024-03-02T15:17:42.801Z,0.90
2024-03-02T15:20:11.713Z,0.60
2024-03-02T15:22:41.600Z,0.70
2024-03-02T15:25:10.179Z,0.80
2024-03-02T15:27:38.511Z,0.63
2024-03-02T15:30:08.129Z,0.70
2024-03-02T15:32:37.869Z,0.70
2024-03-02T15:35:06.903Z,0.70
2024-03-02T15:37:35.134Z,0.80
2024-03-02T15:40:09.510Z,0.60
2024-03-02T15:42:37.999Z,0.80
2024-03-02T15:45:07.018Z,0.70
2024-03-02T15:47:37.218Z,0.75
2024-03-02T15:50:06.333Z,0.73
2024-03-02T15:52:34.771Z,0.70
2024-03-02T15:55:06.738Z,0.60
2024-03-02T15:57:35.615Z,0.70
2024-03-02T16:00:04.846Z,0.75
2024-03-02T16:05:01.440Z,0.53
2024-03-02T16:07:29.631Z,0.40
2024-03-02T16:09:57.677Z,0.52
2024-03-02T16:12:27.485Z,0.40
2024-03-02T16:14:55.648Z,0.80
2024-03-02T16:17:23.840Z,0.40
2024-03-02T16:19:52.058Z,0.40
2024-03-02T16:22:21.546Z,0.57
2024-03-02T16:24:49.559Z,0.57
2024-03-02T16:27:18.902Z,0.38
2024-03-02T16:32:16.698Z,0.40
2024-03-02T16:34:45.025Z,0.40
2024-03-02T16:37:13.138Z,0.30
2024-03-02T16:39:41.566Z,0.60
2024-03-02T16:42:09.853Z,0.70
2024-03-02T16:44:38.068Z,0.52
2024-03-02T16:47:07.748Z,0.50
2024-03-02T16:49:36.901Z,0.52
2024-03-02T16:52:05.683Z,0.50
2024-03-02T16:54:34.051Z,1.10
2024-03-02T16:57:02.084Z,1.80
2024-03-02T16:59:30.084Z,1.45
2024-03-02T17:01:58.276Z,1.75
2024-03-02T17:04:28.580Z,0.80
2024-03-02T17:06:56.812Z,1.75
2024-03-02T17:09:25.002Z,0.60
2024-03-02T17:11:53.150Z,0.75
2024-03-02T17:14:21.396Z,0.70
2024-03-02T17:16:51.074Z,1.35
2024-03-02T17:19:19.440Z,2.00
2024-03-02T17:21:49.131Z,1.40
2024-03-02T17:24:17.171Z,4.05
2024-03-02T17:26:45.166Z,2.10
2024-03-02T17:29:13.344Z,2.13
2024-03-02T17:31:41.750Z,1.60
2024-03-02T17:34:10.834Z,2.00
2024-03-02T17:36:39.342Z,2.13
2024-03-02T17:39:10.396Z,1.70
2024-03-02T17:41:38.526Z,2.10
2024-03-02T17:44:06.817Z,3.00
2024-03-02T17:46:35.071Z,1.65
2024-03-02T17:49:03.265Z,2.00
2024-03-02T17:51:31.462Z,1.70
2024-03-02T17:53:59.601Z,1.60
2024-03-02T17:56:29.228Z,1.80
2024-03-02T17:58:57.338Z,1.58
2024-03-02T18:01:25.609Z,1.70
2024-03-02T18:03:53.832Z,3.70
2024-03-02T18:06:22.098Z,6.60
2024-03-02T18:08:50.471Z,5.63
2024-03-02T18:11:19.304Z,4.17
2024-03-02T18:13:48.883Z,5.20
2024-03-02T18:16:18.375Z,2.92
2024-03-02T18:18:49.204Z,3.10
2024-03-02T18:21:17.332Z,1.95
2024-03-02T18:23:45.505Z,1.70
2024-03-02T18:26:13.746Z,1.55
2024-03-02T18:28:42.243Z,1.88
2024-03-02T18:31:11.877Z,1.50
2024-03-02T18:33:40.226Z,1.98
2024-03-02T18:36:09.453Z,1.87
2024-03-02T18:38:37.565Z,2.42
2024-03-02T18:41:05.785Z,2.50
2024-03-02T18:43:33.784Z,2.20
2024-03-02T18:46:01.980Z,2.13
2024-03-02T18:48:31.472Z,2.33
2024-03-02T18:50:59.659Z,2.22
2024-03-02T18:53:27.840Z,2.28
2024-03-02T18:55:57.379Z,2.58
2024-03-02T18:58:26.439Z,2.70
2024-03-02T19:04:49.789Z,2.42
2024-03-02T19:07:17.948Z,2.65
2024-03-02T19:09:46.038Z,5.00
2024-03-02T19:12:14.104Z,3.67
2024-03-02T19:14:42.360Z,2.53
2024-03-02T19:17:10.866Z,2.15
2024-03-02T19:19:40.748Z,3.60
2024-03-02T19:22:12.118Z,2.20
2024-03-02T19:24:41.306Z,2.00
2024-03-02T19:27:09.324Z,2.20
2024-03-02T19:29:37.338Z,3.65
2024-03-02T19:32:11.822Z,2.22
2024-03-02T19:34:40.547Z,2.10
2024-03-02T19:37:10.050Z,2.20
2024-03-02T19:39:42.991Z,1.90
2024-03-02T19:42:11.137Z,2.75
2024-03-02T19:44:39.318Z,2.13
2024-03-02T19:47:07.671Z,2.20
2024-03-02T19:49:35.772Z,2.15
2024-03-02T19:52:04.193Z,2.47
2024-03-02T19:54:34.478Z,2.20
2024-03-02T19:57:03.425Z,2.58
2024-03-02T19:59:31.637Z,4.18
2024-03-02T20:01:59.823Z,3.60
2024-03-02T20:04:28.186Z,2.30
2024-03-02T20:06:57.114Z,1.80
2024-03-02T20:09:25.600Z,1.45
2024-03-02T20:11:56.053Z,1.90
2024-03-02T20:14:24.888Z,1.75
2024-03-02T20:16:53.086Z,1.95
2024-03-02T20:19:22.517Z,1.90
2024-03-02T20:21:50.767Z,1.77
2024-03-02T20:24:18.978Z,1.75
2024-03-02T20:26:47.110Z,2.05
2024-03-02T20:29:16.964Z,1.77
2024-03-02T20:31:45.136Z,1.90
2024-03-02T20:34:13.701Z,2.10
2024-03-02T20:36:44.791Z,2.05
2024-03-02T20:39:13.147Z,2.08
2024-03-02T20:41:41.404Z,1.95
2024-03-02T20:44:09.706Z,2.10
2024-03-02T20:46:39.389Z,2.20
2024-03-02T20:49:07.622Z,2.33
2024-03-02T20:51:35.770Z,2.05
2024-03-02T20:56:36.976Z,2.40
2024-03-02T20:59:05.785Z,2.50
2024-03-02T21:01:34.465Z,2.80
2024-03-02T21:04:04.761Z,2.83
2024-03-02T21:06:32.913Z,2.60
2024-03-02T21:09:01.217Z,2.72
2024-03-02T21:11:29.304Z,2.67
2024-03-02T21:13:57.621Z,3.00
2024-03-02T21:16:25.720Z,3.35
2024-03-02T21:18:55.205Z,2.63
2024-03-02T21:21:24.874Z,3.13
2024-03-02T21:23:53.193Z,2.97
2024-03-02T21:26:21.355Z,2.90
2024-03-02T21:28:49.688Z,2.80
2024-03-02T21:31:18.345Z,2.85
2024-03-02T21:33:46.624Z,2.88
2024-03-02T21:36:15.217Z,3.03
2024-03-02T21:38:45.028Z,2.97
2024-03-02T21:41:13.449Z,3.33
2024-03-02T21:43:43.011Z,3.20
2024-03-02T21:46:13.896Z,3.45
2024-03-02T21:48:42.146Z,3.50
2024-03-02T21:51:10.367Z,3.53
2024-03-02T21:53:38.968Z,3.53
2024-03-02T21:56:10.449Z,3.58
2024-03-02T21:58:38.453Z,3.58
2024-03-02T22:01:06.761Z,3.65
2024-03-02T22:03:35.155Z,3.70
2024-03-02T22:06:03.304Z,3.85
2024-03-02T22:08:31.623Z,4.20
2024-03-02T22:10:59.842Z,4.00
2024-03-02T22:13:29.474Z,3.90
2024-03-02T22:15:57.604Z,3.95
2024-03-02T22:18:25.636Z,4.20
2024-03-02T22:20:53.682Z,3.70
2024-03-02T22:23:22.465Z,4.13
2024-03-02T22:25:50.820Z,3.97
2024-03-02T22:28:19.016Z,4.65
2024-03-02T22:30:48.833Z,4.60
2024-03-02T22:33:16.871Z,4.03
2024-03-02T22:35:45.234Z,4.47
2024-03-02T22:38:16.003Z,4.10
2024-03-02T22:40:44.500Z,4.30
2024-03-02T22:43:12.913Z,4.88
2024-03-02T22:45:41.213Z,4.20
2024-03-02T22:48:11.383Z,4.65
2024-03-02T22:50:39.692Z,4.30
2024-03-02T22:53:07.696Z,4.65
2024-03-02T22:55:36.192Z,4.28
2024-03-02T22:58:04.420Z,4.20
2024-03-02T23:00:49.238Z,4.85
2024-03-02T23:03:19.448Z,4.70
2024-03-02T23:05:47.506Z,4.20
2024-03-02T23:08:15.766Z,4.35
2024-03-02T23:10:43.854Z,4.63
2024-03-02T23:13:12.148Z,4.45
2024-03-02T23:15:40.718Z,4.50
2024-03-02T23:18:09.062Z,5.07
2024-03-02T23:20:38.418Z,4.63
2024-03-02T23:25:35.577Z,5.22
2024-03-02T23:28:04.021Z,4.32
2024-03-02T23:30:32.303Z,4.83
2024-03-02T23:33:01.019Z,4.53
2024-03-02T23:35:29.056Z,5.00
2024-03-02T23:37:58.789Z,4.45
2024-03-02T23:40:46.253Z,5.00
2024-03-02T23:43:14.837Z,5.35
2024-03-02T23:45:43.112Z,5.13
2024-03-02T23:48:12.031Z,4.72
2024-03-02T23:50:40.049Z,5.05
2024-03-02T23:53:09.947Z,4.95
2024-03-02T23:58:09.404Z,5.05
